Time;durP1;ratioP1;P1;durP2;ratioP2;P2;SDS_P1;SDS_P2;PMS_P1;PMS_P2;Temp;Humidity;BMP_temperature;BMP_pressure;BME280_temperature;BME280_humidity;BME280_pressure;Samples;Min_cycle;Max_cycle;Signal;HPM_P1;HPM_P2
2022/05/12 00:01:58;;;;;;;59.10;3.13;;;;;;;;;;5070112;28;20524;-75
2022/05/12 00:04:25;;;;;;;59.83;3.30;;;;;;;;;;5071666;28;20501;-75
2022/05/12 00:06:52;;;;;;;59.40;3.20;;;;;;;;;;5071518;28;20538;-75
2022/05/12 00:09:20;;;;;;;59.00;3.33;;;;;;;;;;5070330;28;20447;-75
2022/05/12 00:11:48;;;;;;;58.50;2.50;;;;;;;;;;5071504;28;20539;-75
2022/05/12 00:14:16;;;;;;;58.70;2.80;;;;;;;;;;5071447;28;20491;-75
2022/05/12 00:16:43;;;;;;;59.60;3.20;;;;;;;;;;5071576;28;20449;-75
2022/05/12 00:19:10;;;;;;;60.00;3.60;;;;;;;;;;5071355;28;20531;-75
2022/05/12 00:21:37;;;;;;;59.10;2.60;;;;;;;;;;5071693;28;20473;-75
2022/05/12 00:24:05;;;;;;;58.50;2.90;;;;;;;;;;5071514;28;20444;-76
2022/05/12 00:26:34;;;;;;;58.97;3.13;;;;;;;;;;5071559;28;20451;-75
2022/05/12 00:29:05;;;;;;;58.00;2.70;;;;;;;;;;5071210;28;20444;-76
2022/05/12 00:31:33;;;;;;;59.50;3.37;;;;;;;;;;5071643;28;20560;-76
2022/05/12 00:34:00;;;;;;;58.83;3.23;;;;;;;;;;5071151;28;20476;-76
2022/05/12 00:36:28;;;;;;;58.87;2.97;;;;;;;;;;5071585;28;20540;-75
2022/05/12 00:38:55;;;;;;;59.27;3.07;;;;;;;;;;5070923;28;20836;-75
2022/05/12 00:41:22;;;;;;;59.10;2.60;;;;;;;;;;5071206;28;20471;-75
2022/05/12 00:43:50;;;;;;;58.83;3.40;;;;;;;;;;5071141;28;20436;-75
2022/05/12 00:46:20;;;;;;;59.07;2.80;;;;;;;;;;5071221;28;20450;-75
2022/05/12 00:48:47;;;;;;;58.77;2.77;;;;;;;;;;5071163;28;20460;-76
2022/05/12 00:51:15;;;;;;;58.97;3.13;;;;;;;;;;5071444;28;20985;-76
2022/05/12 00:53:43;;;;;;;59.17;2.93;;;;;;;;;;5071152;28;20543;-76
2022/05/12 00:56:12;;;;;;;58.80;3.30;;;;;;;;;;5071264;28;20452;-76
2022/05/12 00:58:39;;;;;;;60.00;3.43;;;;;;;;;;5076327;28;20446;-76
2022/05/12 01:01:08;;;;;;;59.43;3.40;;;;;;;;;;5072966;28;20844;-76
2022/05/12 01:03:39;;;;;;;58.90;2.90;;;;;;;;;;5071209;28;20453;-76
2022/05/12 01:06:06;;;;;;;58.90;2.90;;;;;;;;;;5071239;28;20450;-76
2022/05/12 01:08:33;;;;;;;59.50;3.10;;;;;;;;;;5071017;28;20829;-76
2022/05/12 01:11:02;;;;;;;59.00;3.10;;;;;;;;;;5071485;28;20477;-75
2022/05/12 01:13:29;;;;;;;58.87;2.97;;;;;;;;;;5074496;28;20487;-76
2022/05/12 01:15:58;;;;;;;59.40;3.40;;;;;;;;;;5074687;28;20484;-76
2022/05/12 01:18:25;;;;;;;59.20;3.33;;;;;;;;;;5074338;28;20490;-75
2022/05/12 01:20:54;;;;;;;59.17;3.37;;;;;;;;;;5074321;28;20514;-76
2022/05/12 01:23:24;;;;;;;59.20;3.13;;;;;;;;;;5074370;28;20440;-75
2022/05/12 01:25:51;;;;;;;59.00;3.00;;;;;;;;;;5074559;28;20458;-75
2022/05/12 01:28:18;;;;;;;59.30;3.27;;;;;;;;;;5074374;28;20795;-76
2022/05/12 01:30:46;;;;;;;58.57;3.23;;;;;;;;;;5074228;28;20554;-77
2022/05/12 01:33:13;;;;;;;59.60;3.43;;;;;;;;;;5074219;28;20443;-76
2022/05/12 01:35:40;;;;;;;58.77;2.87;;;;;;;;;;5074114;28;21089;-76
2022/05/12 01:38:07;;;;;;;58.97;3.13;;;;;;;;;;5073948;28;20467;-76
2022/05/12 01:40:37;;;;;;;58.50;2.70;;;;;;;;;;5074307;28;20455;-76
2022/05/12 01:43:04;;;;;;;59.10;3.20;;;;;;;;;;5074284;28;20509;-77
2022/05/12 01:45:31;;;;;;;59.10;2.97;;;;;;;;;;5074153;28;20443;-76
2022/05/12 01:50:40;;;;;;;58.97;3.20;;;;;;;;;;5031193;28;20457;-76
2022/05/12 01:53:09;;;;;;;59.00;3.10;;;;;;;;;;5031599;28;20533;-76
2022/05/12 01:55:38;;;;;;;58.27;2.90;;;;;;;;;;5031456;28;20484;-75
2022/05/12 01:58:06;;;;;;;59.07;3.03;;;;;;;;;;5031394;28;20887;-76
2022/05/12 02:00:33;;;;;;;60.87;3.93;;;;;;;;;;5031345;28;20541;-76
2022/05/12 02:03:01;;;;;;;62.03;4.07;;;;;;;;;;5031346;28;20587;-77
2022/05/12 02:05:28;;;;;;;58.20;3.00;;;;;;;;;;5031366;28;20894;-77
2022/05/12 02:07:55;;;;;;;58.83;2.70;;;;;;;;;;5031160;28;20449;-76
2022/05/12 02:10:24;;;;;;;58.17;2.90;;;;;;;;;;5031093;28;20469;-77
2022/05/12 02:12:52;;;;;;;59.67;2.83;;;;;;;;;;5031130;28;20460;-77
2022/05/12 02:15:20;;;;;;;59.13;2.80;;;;;;;;;;5031083;28;20975;-77
2022/05/12 02:17:49;;;;;;;58.73;2.73;;;;;;;;;;5030730;28;20828;-77
2022/05/12 02:20:17;;;;;;;59.57;3.67;;;;;;;;;;5031073;28;20469;-75
2022/05/12 02:22:44;;;;;;;58.67;2.83;;;;;;;;;;5072776;28;20534;-76
2022/05/12 02:25:12;;;;;;;59.20;3.40;;;;;;;;;;5073441;28;20458;-77
2022/05/12 02:27:42;;;;;;;59.10;3.70;;;;;;;;;;5072788;28;20533;-76
2022/05/12 02:30:12;;;;;;;58.67;2.53;;;;;;;;;;5073260;28;20895;-77
2022/05/12 02:32:39;;;;;;;59.97;3.20;;;;;;;;;;5073412;28;20879;-77
2022/05/12 02:35:07;;;;;;;58.70;2.73;;;;;;;;;;5073303;28;20574;-76
2022/05/12 02:37:34;;;;;;;59.10;3.17;;;;;;;;;;5072828;28;20818;-77
2022/05/12 02:40:01;;;;;;;59.07;2.97;;;;;;;;;;5073202;28;20859;-77
2022/05/12 02:42:29;;;;;;;59.00;3.27;;;;;;;;;;5073262;28;20483;-75
2022/05/12 02:44:56;;;;;;;58.37;2.73;;;;;;;;;;5073893;28;20518;-76
2022/05/12 02:47:24;;;;;;;59.30;3.20;;;;;;;;;;5072262;28;20498;-77
2022/05/12 02:49:52;;;;;;;59.40;3.33;;;;;;;;;;5072493;28;20471;-75
2022/05/12 02:52:19;;;;;;;59.07;3.10;;;;;;;;;;5072669;28;20531;-75
2022/05/12 02:54:46;;;;;;;58.80;2.80;;;;;;;;;;5072435;28;20478;-76
2022/05/12 02:57:13;;;;;;;59.63;3.10;;;;;;;;;;5072373;28;20447;-75
2022/05/12 02:59:40;;;;;;;59.87;3.00;;;;;;;;;;5072394;28;20462;-75
2022/05/12 03:02:07;;;;;;;59.07;2.80;;;;;;;;;;5072852;28;20443;-75
2022/05/12 03:04:36;;;;;;;58.37;2.67;;;;;;;;;;5072708;28;20452;-76
2022/05/12 03:07:03;;;;;;;62.27;3.40;;;;;;;;;;5072283;28;20493;-75
2022/05/12 03:09:30;;;;;;;59.10;3.00;;;;;;;;;;5072113;28;20469;-76
2022/05/12 03:11:57;;;;;;;59.53;3.50;;;;;;;;;;5072469;28;20452;-75
2022/05/12 03:14:25;;;;;;;58.90;3.23;;;;;;;;;;5072007;28;20492;-75
2022/05/12 03:16:53;;;;;;;58.23;2.70;;;;;;;;;;5072295;28;20458;-75
2022/05/12 03:19:20;;;;;;;59.17;2.87;;;;;;;;;;5071753;28;20455;-74
2022/05/12 03:21:49;;;;;;;59.17;3.03;;;;;;;;;;5072085;28;20459;-74
2022/05/12 03:24:16;;;;;;;58.43;2.90;;;;;;;;;;5072346;28;20457;-75
2022/05/12 03:26:44;;;;;;;58.43;2.80;;;;;;;;;;5072273;28;20535;-76
2022/05/12 03:29:11;;;;;;;60.07;3.57;;;;;;;;;;5071612;28;20483;-77
2022/05/12 03:31:38;;;;;;;58.80;3.00;;;;;;;;;;5072024;28;20546;-75
2022/05/12 03:34:06;;;;;;;58.33;3.03;;;;;;;;;;5071234;28;20454;-77
2022/05/12 03:36:35;;;;;;;58.30;2.57;;;;;;;;;;5071707;28;20487;-78
2022/05/12 03:39:04;;;;;;;58.70;2.60;;;;;;;;;;5071438;28;20508;-76
2022/05/12 03:41:31;;;;;;;58.43;2.67;;;;;;;;;;5072168;28;20494;-77
2022/05/12 03:46:43;;;;;;;58.37;2.50;;;;;;;;;;5071942;28;20430;-76
2022/05/12 03:49:10;;;;;;;58.17;2.33;;;;;;;;;;5071359;28;20455;-76
2022/05/12 03:51:38;;;;;;;59.27;3.40;;;;;;;;;;5071882;28;20475;-76
2022/05/12 03:54:06;;;;;;;58.70;2.67;;;;;;;;;;5071849;28;20542;-75
2022/05/12 03:56:35;;;;;;;58.37;2.37;;;;;;;;;;5071870;28;20565;-76
2022/05/12 03:59:03;;;;;;;58.97;2.97;;;;;;;;;;5071062;28;20459;-77
2022/05/12 04:01:31;;;;;;;58.50;2.60;;;;;;;;;;5071619;28;20475;-77
2022/05/12 04:03:58;;;;;;;59.20;2.90;;;;;;;;;;5071593;28;20447;-77
2022/05/12 04:06:26;;;;;;;58.90;2.67;;;;;;;;;;5071611;28;20530;-76
2022/05/12 04:08:53;;;;;;;58.67;2.90;;;;;;;;;;5071138;28;20454;-77
2022/05/12 04:11:21;;;;;;;59.00;2.93;;;;;;;;;;5071527;28;20569;-77
2022/05/12 04:13:49;;;;;;;58.33;2.80;;;;;;;;;;5071575;28;20533;-76
2022/05/12 04:16:18;;;;;;;58.43;2.70;;;;;;;;;;5071409;28;20805;-76
2022/05/12 04:18:45;;;;;;;58.50;2.53;;;;;;;;;;5071015;28;20450;-76
2022/05/12 04:21:12;;;;;;;58.57;2.70;;;;;;;;;;5071556;28;20467;-76
2022/05/12 04:23:40;;;;;;;58.77;2.50;;;;;;;;;;5071665;28;20817;-76
2022/05/12 04:26:07;;;;;;;58.97;2.60;;;;;;;;;;5071475;28;20449;-76
2022/05/12 04:28:36;;;;;;;58.87;2.57;;;;;;;;;;5070597;28;20447;-76
2022/05/12 04:31:04;;;;;;;58.40;2.40;;;;;;;;;;5071600;28;20471;-76
2022/05/12 04:36:16;;;;;;;63.57;3.27;;;;;;;;;;5071319;28;20482;-76
2022/05/12 04:38:43;;;;;;;58.70;2.33;;;;;;;;;;5070645;28;20466;-76
2022/05/12 04:41:11;;;;;;;58.37;2.40;;;;;;;;;;5071163;28;20498;-76
2022/05/12 04:43:39;;;;;;;58.17;2.70;;;;;;;;;;5071181;28;20450;-76
2022/05/12 04:46:06;;;;;;;59.40;2.70;;;;;;;;;;5073562;28;20529;-76
2022/05/12 04:48:34;;;;;;;59.00;2.50;;;;;;;;;;5074512;28;20853;-77
2022/05/12 04:51:03;;;;;;;58.67;2.77;;;;;;;;;;5074827;28;20466;-76
2022/05/12 04:53:30;;;;;;;58.93;2.37;;;;;;;;;;5074858;28;20451;-77
2022/05/12 04:55:58;;;;;;;58.37;2.60;;;;;;;;;;5074842;28;20490;-76
2022/05/12 04:58:26;;;;;;;59.17;2.90;;;;;;;;;;5074286;28;20445;-76
2022/05/12 05:00:54;;;;;;;58.80;2.90;;;;;;;;;;5074940;28;20557;-76
2022/05/12 05:03:21;;;;;;;58.40;2.60;;;;;;;;;;5074702;28;20465;-76
2022/05/12 05:05:49;;;;;;;58.60;2.60;;;;;;;;;;5074826;28;20474;-76
2022/05/12 05:08:16;;;;;;;59.10;2.93;;;;;;;;;;5073953;28;20866;-76
2022/05/12 05:10:44;;;;;;;58.40;2.30;;;;;;;;;;5074497;28;20469;-76
2022/05/12 05:13:11;;;;;;;58.83;2.60;;;;;;;;;;5074685;28;20843;-74
2022/05/12 05:15:38;;;;;;;60.10;2.50;;;;;;;;;;5074592;28;20862;-76
2022/05/12 05:18:07;;;;;;;60.30;3.27;;;;;;;;;;5073830;28;20459;-76
2022/05/12 05:20:34;;;;;;;58.77;2.50;;;;;;;;;;5074811;28;20477;-76
2022/05/12 05:23:01;;;;;;;59.00;2.87;;;;;;;;;;5074268;28;20461;-76
2022/05/12 05:25:31;;;;;;;60.80;3.23;;;;;;;;;;5074565;28;20451;-76
2022/05/12 05:27:58;;;;;;;58.47;2.70;;;;;;;;;;5073844;28;20459;-76
2022/05/12 05:30:26;;;;;;;59.30;3.73;;;;;;;;;;5074331;28;20544;-74
2022/05/12 05:32:53;;;;;;;58.43;3.03;;;;;;;;;;5074089;28;20447;-76
2022/05/12 05:35:22;;;;;;;58.57;3.07;;;;;;;;;;5073956;28;20937;-76
2022/05/12 05:37:51;;;;;;;58.97;3.00;;;;;;;;;;5073474;28;20880;-76
2022/05/12 05:40:19;;;;;;;59.00;2.70;;;;;;;;;;5073995;28;20467;-76
2022/05/12 05:42:47;;;;;;;59.07;2.70;;;;;;;;;;5074009;28;20458;-77
2022/05/12 05:45:17;;;;;;;58.77;2.80;;;;;;;;;;5073900;28;20450;-76
2022/05/12 05:47:45;;;;;;;58.80;2.70;;;;;;;;;;5073220;28;20467;-77
2022/05/12 05:50:13;;;;;;;58.63;2.70;;;;;;;;;;5073896;28;20467;-77
2022/05/12 05:55:27;;;;;;;58.53;2.50;;;;;;;;;;5073863;28;20492;-76
2022/05/12 05:57:54;;;;;;;58.87;2.70;;;;;;;;;;5072376;28;20455;-76
2022/05/12 06:00:21;;;;;;;60.87;3.00;;;;;;;;;;5073532;28;20492;-76
2022/05/12 06:02:50;;;;;;;58.90;3.00;;;;;;;;;;5073416;28;21012;-76
2022/05/12 06:05:18;;;;;;;58.47;2.47;;;;;;;;;;5073604;28;20493;-77
2022/05/12 06:07:46;;;;;;;58.67;2.80;;;;;;;;;;5072224;28;20940;-75
2022/05/12 06:10:13;;;;;;;57.70;2.30;;;;;;;;;;5073039;28;20858;-76
2022/05/12 06:12:41;;;;;;;58.47;2.50;;;;;;;;;;5074542;28;20547;-75
2022/05/12 06:15:09;;;;;;;58.10;2.97;;;;;;;;;;5073675;28;20456;-77
2022/05/12 06:17:36;;;;;;;58.80;2.90;;;;;;;;;;5072676;28;20963;-77
2022/05/12 06:20:04;;;;;;;58.10;2.40;;;;;;;;;;5073445;28;20555;-76
2022/05/12 06:22:31;;;;;;;64.20;2.70;;;;;;;;;;5073363;28;20542;-76
2022/05/12 06:25:00;;;;;;;59.07;2.70;;;;;;;;;;5073275;28;20563;-76
2022/05/12 06:27:27;;;;;;;58.27;2.23;;;;;;;;;;5072396;28;20447;-78
2022/05/12 06:29:56;;;;;;;59.27;2.80;;;;;;;;;;5073343;28;20894;-75
2022/05/12 06:32:23;;;;;;;58.37;2.70;;;;;;;;;;5072979;28;20981;-74
2022/05/12 06:34:50;;;;;;;58.27;2.37;;;;;;;;;;5073014;28;20459;-75
2022/05/12 06:37:19;;;;;;;59.30;3.27;;;;;;;;;;5067205;28;20480;-76
2022/05/12 06:39:46;;;;;;;58.60;2.33;;;;;;;;;;5073020;28;20482;-77
2022/05/12 06:42:14;;;;;;;58.50;2.40;;;;;;;;;;5069901;28;20443;-77
2022/05/12 06:44:42;;;;;;;58.60;2.90;;;;;;;;;;5072577;28;20978;-75
2022/05/12 06:47:10;;;;;;;58.67;2.40;;;;;;;;;;5072094;28;20452;-79
2022/05/12 06:49:37;;;;;;;58.83;2.70;;;;;;;;;;5072205;28;20458;-75
2022/05/12 06:52:05;;;;;;;58.17;2.80;;;;;;;;;;5072577;28;20829;-76
2022/05/12 06:54:32;;;;;;;58.67;2.40;;;;;;;;;;5072838;28;20457;-76
2022/05/12 06:56:59;;;;;;;59.20;3.33;;;;;;;;;;5072746;28;20488;-78
2022/05/12 06:59:28;;;;;;;58.93;2.87;;;;;;;;;;5071962;28;20979;-76
2022/05/12 07:01:55;;;;;;;58.13;2.30;;;;;;;;;;5072414;28;20537;-77
2022/05/12 07:04:24;;;;;;;58.97;2.60;;;;;;;;;;5072379;28;20538;-79
2022/05/12 07:06:51;;;;;;;58.57;2.30;;;;;;;;;;5072166;28;20481;-76
2022/05/12 07:09:20;;;;;;;58.50;2.30;;;;;;;;;;5070508;28;20443;-76
2022/05/12 07:11:47;;;;;;;57.77;2.30;;;;;;;;;;5072100;28;20956;-77
2022/05/12 07:14:17;;;;;;;58.17;2.50;;;;;;;;;;5068296;28;20579;-78
2022/05/12 07:16:46;;;;;;;59.53;2.33;;;;;;;;;;5071792;28;20476;-78
2022/05/12 07:19:15;;;;;;;59.27;3.13;;;;;;;;;;5071712;28;20449;-78
2022/05/12 07:27:11;;;;;;;58.47;2.30;;;;;;;;;;5071540;28;20945;-77
2022/05/12 07:29:38;;;;;;;58.43;2.23;;;;;;;;;;5071898;28;20511;-76
2022/05/12 07:32:08;;;;;;;58.43;2.50;;;;;;;;;;5071904;28;20534;-79
2022/05/12 07:34:36;;;;;;;59.30;2.50;;;;;;;;;;5071923;28;20446;-76
2022/05/12 07:37:04;;;;;;;58.37;2.20;;;;;;;;;;5071899;28;20491;-75
2022/05/12 07:39:33;;;;;;;58.90;2.40;;;;;;;;;;5071408;28;20560;-76
2022/05/12 07:42:01;;;;;;;58.90;2.57;;;;;;;;;;5071939;28;20539;-73
2022/05/12 07:44:32;;;;;;;59.10;2.70;;;;;;;;;;5071604;28;20449;-74
2022/05/12 07:46:59;;;;;;;58.37;2.13;;;;;;;;;;5070883;28;20451;-75
2022/05/12 07:49:31;;;;;;;58.70;2.37;;;;;;;;;;5071357;28;20901;-75
2022/05/12 07:51:59;;;;;;;58.17;2.30;;;;;;;;;;5071927;28;20453;-76
2022/05/12 07:54:26;;;;;;;57.77;2.60;;;;;;;;;;5071839;28;20453;-75
2022/05/12 07:56:53;;;;;;;58.27;2.27;;;;;;;;;;5071765;28;20875;-75
2022/05/12 07:59:21;;;;;;;58.23;2.17;;;;;;;;;;5070950;28;20443;-75
2022/05/12 08:01:48;;;;;;;58.80;2.30;;;;;;;;;;5071928;28;20445;-75
2022/05/12 08:04:16;;;;;;;58.73;2.43;;;;;;;;;;5071887;28;20473;-75
2022/05/12 08:06:44;;;;;;;57.80;2.60;;;;;;;;;;5071914;28;20891;-76
2022/05/12 08:09:12;;;;;;;58.27;2.90;;;;;;;;;;5070968;28;20536;-75
2022/05/12 08:11:40;;;;;;;59.10;2.60;;;;;;;;;;5071817;28;20476;-75
2022/05/12 08:14:07;;;;;;;58.50;2.27;;;;;;;;;;5071770;28;20509;-75
2022/05/12 08:16:35;;;;;;;58.50;2.40;;;;;;;;;;5071477;28;20488;-75
2022/05/12 08:19:02;;;;;;;58.80;2.97;;;;;;;;;;5071069;28;20528;-75
2022/05/12 08:21:29;;;;;;;58.23;2.70;;;;;;;;;;5074693;28;20979;-76
2022/05/12 08:23:58;;;;;;;58.67;2.83;;;;;;;;;;5075474;28;21019;-76
2022/05/12 08:26:25;;;;;;;58.27;2.33;;;;;;;;;;5075459;28;20970;-75
2022/05/12 08:28:53;;;;;;;58.40;2.70;;;;;;;;;;5075023;28;20656;-76
2022/05/12 08:31:24;;;;;;;61.43;4.63;;;;;;;;;;5075381;28;20463;-75
2022/05/12 08:33:52;;;;;;;59.07;2.73;;;;;;;;;;5075451;28;20451;-75
2022/05/12 08:36:19;;;;;;;58.50;2.50;;;;;;;;;;5075234;28;20569;-75
2022/05/12 08:38:46;;;;;;;58.97;2.63;;;;;;;;;;5074381;28;20502;-75
2022/05/12 08:41:27;;;;;;;58.70;2.67;;;;;;;;;;5075168;28;20471;-76
2022/05/12 08:43:57;;;;;;;58.40;2.43;;;;;;;;;;5075133;28;20447;-75
2022/05/12 08:46:25;;;;;;;58.70;3.00;;;;;;;;;;5075304;28;20443;-76
2022/05/12 08:48:58;;;;;;;58.30;2.47;;;;;;;;;;5074891;28;20455;-75
2022/05/12 08:51:25;;;;;;;58.53;2.63;;;;;;;;;;5075316;28;20463;-75
2022/05/12 08:53:54;;;;;;;58.47;2.27;;;;;;;;;;5075127;28;20834;-75
2022/05/12 08:56:24;;;;;;;58.90;2.93;;;;;;;;;;5075016;28;20568;-75
2022/05/12 08:58:53;;;;;;;59.20;2.93;;;;;;;;;;5074214;28;21011;-76
2022/05/12 09:01:23;;;;;;;58.33;2.80;;;;;;;;;;5075160;28;20472;-76
2022/05/12 09:03:56;;;;;;;59.00;2.70;;;;;;;;;;5074626;28;20451;-77
2022/05/12 09:06:25;;;;;;;58.70;2.60;;;;;;;;;;5074805;28;20956;-76
2022/05/12 09:08:55;;;;;;;58.77;2.73;;;;;;;;;;5074608;28;20537;-77
2022/05/12 09:11:27;;;;;;;58.87;2.60;;;;;;;;;;5074772;28;20498;-76
2022/05/12 09:13:55;;;;;;;59.67;2.60;;;;;;;;;;5074620;28;20454;-76
2022/05/12 09:16:25;;;;;;;58.67;2.60;;;;;;;;;;5074563;28;20538;-75
2022/05/12 09:18:53;;;;;;;58.57;2.60;;;;;;;;;;5074032;28;20539;-76
2022/05/12 09:21:23;;;;;;;58.80;2.70;;;;;;;;;;5074658;28;20866;-75
2022/05/12 09:23:50;;;;;;;58.73;2.87;;;;;;;;;;5075068;28;20448;-76
2022/05/12 09:26:41;;;;;;;59.30;3.03;;;;;;;;;;5074438;28;20546;-77
2022/05/12 09:29:14;;;;;;;59.20;3.20;;;;;;;;;;5058962;28;20498;-75
2022/05/12 09:31:42;;;;;;;58.90;2.70;;;;;;;;;;5073424;28;20463;-75
2022/05/12 09:34:15;;;;;;;59.97;2.90;;;;;;;;;;5074241;28;20457;-76
2022/05/12 09:36:42;;;;;;;58.90;2.97;;;;;;;;;;5074295;28;20483;-74
2022/05/12 09:39:10;;;;;;;60.07;3.20;;;;;;;;;;5073389;28;20843;-74
2022/05/12 09:41:40;;;;;;;59.60;3.60;;;;;;;;;;5074279;28;20918;-74
2022/05/12 09:44:19;;;;;;;61.57;3.13;;;;;;;;;;5074081;28;20948;-76
2022/05/12 09:46:55;;;;;;;59.40;3.10;;;;;;;;;;5074294;28;20822;-77
2022/05/12 09:49:24;;;;;;;59.00;3.13;;;;;;;;;;5073380;28;20557;-78
2022/05/12 09:51:52;;;;;;;58.90;3.00;;;;;;;;;;5074127;28;20454;-80
2022/05/12 09:54:26;;;;;;;58.67;2.90;;;;;;;;;;5074350;28;20482;-77
2022/05/12 09:57:01;;;;;;;58.90;2.80;;;;;;;;;;5077755;28;20570;-76
2022/05/12 09:59:31;;;;;;;60.27;2.87;;;;;;;;;;5073152;28;20449;-77
2022/05/12 10:02:00;;;;;;;58.87;2.70;;;;;;;;;;5073755;28;20451;-74
2022/05/12 10:10:13;;;;;;;58.97;2.97;;;;;;;;;;5073282;28;20474;-75
2022/05/12 10:12:46;;;;;;;59.50;2.63;;;;;;;;;;5073828;28;20491;-77
2022/05/12 10:15:19;;;;;;;58.90;3.00;;;;;;;;;;5074299;28;20452;-76
2022/05/12 10:17:48;;;;;;;58.57;2.80;;;;;;;;;;5072873;28;20487;-76
2022/05/12 10:20:18;;;;;;;58.67;2.80;;;;;;;;;;5073294;28;20834;-75
2022/05/12 10:22:47;;;;;;;59.50;2.80;;;;;;;;;;5073119;28;20552;-74
2022/05/12 10:25:19;;;;;;;59.10;2.60;;;;;;;;;;5073437;28;20550;-74
2022/05/12 10:27:51;;;;;;;58.30;2.30;;;;;;;;;;5072654;28;20439;-74
2022/05/12 10:30:26;;;;;;;58.43;2.50;;;;;;;;;;5070665;28;20570;-73
2022/05/12 10:33:00;;;;;;;59.10;3.10;;;;;;;;;;5053375;28;20455;-71
2022/05/12 10:35:31;;;;;;;60.87;2.30;;;;;;;;;;5052735;28;20449;-73
2022/05/12 10:38:02;;;;;;;58.60;2.80;;;;;;;;;;5049740;28;20857;-73
2022/05/12 10:40:34;;;;;;;58.40;2.30;;;;;;;;;;5072987;28;20467;-73
2022/05/12 10:43:08;;;;;;;59.00;2.50;;;;;;;;;;5072595;28;20485;-74
2022/05/12 10:45:39;;;;;;;57.87;2.30;;;;;;;;;;5072597;28;20493;-73
2022/05/12 10:48:30;;;;;;;58.27;2.77;;;;;;;;;;5072139;28;20949;-74
2022/05/12 10:50:59;;;;;;;58.20;2.40;;;;;;;;;;5072740;28;20489;-74
2022/05/12 10:53:33;;;;;;;57.90;2.87;;;;;;;;;;5072560;28;20455;-73
2022/05/12 10:56:03;;;;;;;57.97;2.57;;;;;;;;;;5072655;28;20459;-74
2022/05/12 10:58:35;;;;;;;57.80;2.33;;;;;;;;;;5071638;28;20998;-73
2022/05/12 11:01:10;;;;;;;57.80;2.07;;;;;;;;;;5072493;28;20566;-74
2022/05/12 11:03:41;;;;;;;57.70;2.50;;;;;;;;;;5072366;28;21011;-74
2022/05/12 11:06:10;;;;;;;57.97;2.93;;;;;;;;;;5072356;28;20800;-73
2022/05/12 11:08:39;;;;;;;57.77;2.60;;;;;;;;;;5069881;28;20530;-77
2022/05/12 11:11:09;;;;;;;57.70;2.40;;;;;;;;;;5070023;28;20495;-73
2022/05/12 11:13:39;;;;;;;58.03;2.60;;;;;;;;;;5072288;28;20455;-73
2022/05/12 11:16:11;;;;;;;57.83;2.50;;;;;;;;;;5072144;28;20447;-73
2022/05/12 11:18:41;;;;;;;59.37;2.30;;;;;;;;;;5071556;28;20487;-74
2022/05/12 11:21:13;;;;;;;57.97;2.63;;;;;;;;;;5071845;28;20563;-74
2022/05/12 11:23:45;;;;;;;57.80;2.47;;;;;;;;;;5072288;28;20539;-73
2022/05/12 11:26:16;;;;;;;57.90;2.70;;;;;;;;;;5072126;28;20936;-73
2022/05/12 11:31:47;;;;;;;57.77;2.50;;;;;;;;;;5029593;28;20450;-72
2022/05/12 11:34:17;;;;;;;57.73;2.80;;;;;;;;;;5062945;28;20538;-73
2022/05/12 11:36:46;;;;;;;58.13;2.80;;;;;;;;;;5071750;28;20987;-73
2022/05/12 11:39:27;;;;;;;57.70;2.57;;;;;;;;;;5070062;28;21273;-73
2022/05/12 11:42:08;;;;;;;58.00;2.43;;;;;;;;;;5058779;28;20452;-74
2022/05/12 11:44:38;;;;;;;58.27;2.67;;;;;;;;;;5051620;28;20458;-74
2022/05/12 11:47:36;;;;;;;57.80;2.70;;;;;;;;;;5051455;28;20876;-74
2022/05/12 11:50:20;;;;;;;57.70;2.23;;;;;;;;;;5051692;28;20920;-74
2022/05/12 11:52:53;;;;;;;57.87;2.80;;;;;;;;;;5051761;28;20448;-76
2022/05/12 11:55:22;;;;;;;57.67;2.83;;;;;;;;;;5051147;28;20448;-75
2022/05/12 11:57:58;;;;;;;57.80;3.00;;;;;;;;;;5050950;28;20483;-75
2022/05/12 12:00:41;;;;;;;57.60;2.23;;;;;;;;;;5053172;28;20896;-75
2022/05/12 12:03:23;;;;;;;57.60;2.93;;;;;;;;;;5051270;28;20458;-78
2022/05/12 12:06:06;;;;;;;58.20;2.40;;;;;;;;;;5051134;28;20818;-78
2022/05/12 12:08:42;;;;;;;58.17;2.60;;;;;;;;;;5050847;28;20527;-75
2022/05/12 12:11:25;;;;;;;58.60;2.80;;;;;;;;;;5051334;28;20522;-75
2022/05/12 12:13:53;;;;;;;58.30;2.30;;;;;;;;;;5057646;28;20462;-75
2022/05/12 12:16:21;;;;;;;58.90;2.60;;;;;;;;;;5071543;28;20967;-76
2022/05/12 12:19:08;;;;;;;58.87;2.70;;;;;;;;;;5070838;28;20479;-75
2022/05/12 12:21:54;;;;;;;58.63;2.63;;;;;;;;;;5066559;28;20575;-75
2022/05/12 12:24:39;;;;;;;58.17;2.60;;;;;;;;;;5071418;28;20447;-75
2022/05/12 12:27:30;;;;;;;59.23;2.30;;;;;;;;;;5071193;28;20485;-76
2022/05/12 12:30:12;;;;;;;58.17;2.27;;;;;;;;;;5055865;28;20479;-75
2022/05/12 12:32:41;;;;;;;58.50;2.57;;;;;;;;;;5071482;28;20452;-76
2022/05/12 12:35:14;;;;;;;58.20;2.63;;;;;;;;;;5071456;28;20471;-76
2022/05/12 12:37:42;;;;;;;57.77;2.37;;;;;;;;;;5070670;28;20479;-76
2022/05/12 12:40:43;;;;;;;58.00;2.67;;;;;;;;;;5071057;28;20554;-76
2022/05/12 12:43:18;;;;;;;58.20;2.53;;;;;;;;;;5008354;28;20861;-76
2022/05/12 12:45:47;;;;;;;57.67;2.13;;;;;;;;;;5006514;28;20470;-76
2022/05/12 12:48:18;;;;;;;58.30;2.50;;;;;;;;;;5008328;28;20446;-76
2022/05/12 12:50:47;;;;;;;57.90;2.27;;;;;;;;;;5009076;28;20557;-76
2022/05/12 12:53:15;;;;;;;57.60;2.03;;;;;;;;;;5009223;28;20450;-77
2022/05/12 12:58:35;;;;;;;58.10;2.60;;;;;;;;;;5008702;28;20551;-76
2022/05/12 13:01:03;;;;;;;57.27;1.97;;;;;;;;;;5008961;28;20480;-76
2022/05/12 13:03:33;;;;;;;57.77;2.13;;;;;;;;;;5009068;28;21061;-76
2022/05/12 13:06:10;;;;;;;57.40;2.20;;;;;;;;;;5009767;28;20545;-75
2022/05/12 13:08:37;;;;;;;57.83;2.40;;;;;;;;;;5011524;28;20461;-74
2022/05/12 13:11:06;;;;;;;57.53;2.37;;;;;;;;;;5012488;28;20560;-74
2022/05/12 13:13:47;;;;;;;57.73;2.13;;;;;;;;;;5030263;28;20447;-74
2022/05/12 13:16:16;;;;;;;58.00;2.50;;;;;;;;;;5068495;28;20455;-74
2022/05/12 13:18:47;;;;;;;58.00;2.73;;;;;;;;;;5053907;28;20484;-74
2022/05/12 13:21:20;;;;;;;57.63;2.70;;;;;;;;;;5054418;28;20550;-74
2022/05/12 13:23:58;;;;;;;57.57;2.23;;;;;;;;;;5054503;28;20448;-75
2022/05/12 13:26:25;;;;;;;58.17;2.70;;;;;;;;;;5054332;28;20551;-75
2022/05/12 13:28:52;;;;;;;58.50;2.60;;;;;;;;;;5053645;28;20531;-75
2022/05/12 13:31:24;;;;;;;57.77;2.50;;;;;;;;;;5054356;28;20471;-74
2022/05/12 13:34:02;;;;;;;58.07;2.70;;;;;;;;;;5054169;28;20452;-75
2022/05/12 13:36:32;;;;;;;58.33;2.87;;;;;;;;;;5054065;28;20969;-74
2022/05/12 13:38:59;;;;;;;58.47;2.70;;;;;;;;;;5053478;28;20864;-74
2022/05/12 13:41:28;;;;;;;58.50;2.63;;;;;;;;;;5054208;28;20843;-74
2022/05/12 13:44:01;;;;;;;58.17;2.50;;;;;;;;;;5058713;28;20455;-74
2022/05/12 13:46:28;;;;;;;58.17;2.53;;;;;;;;;;5054004;28;20455;-74
2022/05/12 13:48:58;;;;;;;58.40;2.60;;;;;;;;;;5066474;28;20985;-75
2022/05/12 13:51:47;;;;;;;57.67;2.13;;;;;;;;;;5073440;28;20475;-74
2022/05/12 13:54:23;;;;;;;58.50;2.60;;;;;;;;;;5073405;28;20543;-75
2022/05/12 13:56:51;;;;;;;58.27;2.53;;;;;;;;;;5074248;28;20465;-74
2022/05/12 13:59:24;;;;;;;58.50;2.60;;;;;;;;;;5073046;28;20922;-74
2022/05/12 14:01:51;;;;;;;57.97;2.30;;;;;;;;;;5073571;28;20462;-74
2022/05/12 14:04:20;;;;;;;58.30;2.47;;;;;;;;;;5073998;28;20443;-74
2022/05/12 14:06:51;;;;;;;58.60;2.50;;;;;;;;;;5073557;28;20542;-74
2022/05/12 14:09:20;;;;;;;58.47;2.80;;;;;;;;;;5072915;28;20447;-74
2022/05/12 14:12:09;;;;;;;58.60;2.53;;;;;;;;;;5073666;28;20444;-74
2022/05/12 14:20:09;;;;;;;58.73;2.83;;;;;;;;;;5070472;28;20467;-74
2022/05/12 14:22:38;;;;;;;59.17;2.80;;;;;;;;;;5073117;28;20460;-74
2022/05/12 14:25:06;;;;;;;58.40;2.43;;;;;;;;;;5073254;28;20444;-74
2022/05/12 14:27:33;;;;;;;58.50;2.77;;;;;;;;;;5072676;28;20446;-75
2022/05/12 14:30:00;;;;;;;66.20;2.90;;;;;;;;;;5073115;28;20542;-73
2022/05/12 14:32:31;;;;;;;58.70;2.70;;;;;;;;;;5073054;28;20815;-73
2022/05/12 14:34:58;;;;;;;59.17;2.97;;;;;;;;;;5072935;28;20452;-73
2022/05/12 14:37:26;;;;;;;58.97;2.80;;;;;;;;;;5072354;28;20987;-73
2022/05/12 14:39:54;;;;;;;58.70;2.50;;;;;;;;;;5072694;28;20493;-74
2022/05/12 14:42:21;;;;;;;58.70;2.60;;;;;;;;;;5072679;28;20451;-74
2022/05/12 14:44:48;;;;;;;60.53;2.87;;;;;;;;;;5072920;28;20490;-74
2022/05/12 14:47:20;;;;;;;58.50;2.87;;;;;;;;;;5072087;28;20538;-74
2022/05/12 14:49:48;;;;;;;59.00;3.13;;;;;;;;;;5068582;28;20911;-74
2022/05/12 14:52:18;;;;;;;58.90;2.70;;;;;;;;;;5072866;28;20862;-74
2022/05/12 14:54:45;;;;;;;59.40;3.00;;;;;;;;;;5072821;28;20447;-74
2022/05/12 14:57:14;;;;;;;58.70;2.57;;;;;;;;;;5072009;28;20865;-74
2022/05/12 14:59:41;;;;;;;59.40;3.13;;;;;;;;;;5072463;28;20580;-74
2022/05/12 15:02:10;;;;;;;58.90;2.50;;;;;;;;;;5072239;28;20482;-74
2022/05/12 15:04:38;;;;;;;59.10;3.20;;;;;;;;;;5072552;28;20447;-74
2022/05/12 15:07:05;;;;;;;59.57;3.03;;;;;;;;;;5072217;28;20940;-74
2022/05/12 15:09:32;;;;;;;59.43;3.30;;;;;;;;;;5071612;28;20475;-73
2022/05/12 15:11:59;;;;;;;58.87;2.70;;;;;;;;;;5072404;28;20534;-73
2022/05/12 15:14:28;;;;;;;58.97;2.53;;;;;;;;;;5072185;28;20479;-73
2022/05/12 15:16:55;;;;;;;59.93;3.30;;;;;;;;;;5072255;28;21023;-73
2022/05/12 15:19:23;;;;;;;58.90;2.80;;;;;;;;;;5071532;28;20489;-73